Time;durP1;ratioP1;P1;durP2;ratioP2;P2;SDS_P1;SDS_P2;PMS_P1;PMS_P2;Temp;Humidity;BMP_temperature;BMP_pressure;BME280_temperature;BME280_humidity;BME280_pressure;Samples;Min_cycle;Max_cycle;Signal;HPM_P1;HPM_P2
2022/07/15 00:01:55;;;;;;;;;;;15.00;99.90;;;;;;5033119;28;19933;-67
2022/07/15 00:04:23;;;;;;;;;;;15.00;99.90;;;;;;5038130;28;19951;-67
2022/07/15 00:06:49;;;;;;;;;;;15.00;99.90;;;;;;5037049;28;19928;-66
2022/07/15 00:09:16;;;;;;;;;;;14.90;99.90;;;;;;5038792;28;19929;-66
2022/07/15 00:11:44;;;;;;;;;;;14.80;99.90;;;;;;5035277;28;19967;-66
2022/07/15 00:14:11;;;;;;;;;;;14.70;99.90;;;;;;5038942;28;19933;-68
2022/07/15 00:16:38;;;;;;;;;;;14.70;99.90;;;;;;5033950;28;19971;-67
2022/07/15 00:19:04;;;;;;;;;;;14.60;99.90;;;;;;5039359;28;20023;-65
2022/07/15 00:21:31;;;;;;;;;;;14.60;99.90;;;;;;5040700;28;20023;-66
2022/07/15 00:23:58;;;;;;;;;;;14.60;99.90;;;;;;5039752;28;20682;-66
2022/07/15 00:26:25;;;;;;;;;;;14.60;99.90;;;;;;5041022;28;20034;-66
2022/07/15 00:28:53;;;;;;;;;;;14.50;99.90;;;;;;5042493;28;20011;-66
2022/07/15 00:31:20;;;;;;;;;;;14.50;99.90;;;;;;5046033;28;19940;-66
2022/07/15 00:33:47;;;;;;;;;;;14.50;99.90;;;;;;5046821;28;19931;-66
2022/07/15 00:36:14;;;;;;;;;;;14.40;99.90;;;;;;5045981;28;19925;-66
2022/07/15 00:38:41;;;;;;;;;;;14.40;99.90;;;;;;5045569;28;19931;-67
2022/07/15 00:41:07;;;;;;;;;;;14.40;99.90;;;;;;5038553;28;19925;-67
2022/07/15 00:43:34;;;;;;;;;;;14.40;99.90;;;;;;5048567;28;19924;-66
2022/07/15 00:46:02;;;;;;;;;;;14.40;99.90;;;;;;5040077;28;20032;-67
2022/07/15 00:48:28;;;;;;;;;;;14.40;99.90;;;;;;5038926;28;20012;-68
2022/07/15 00:50:55;;;;;;;;;;;14.30;99.90;;;;;;5038370;28;19960;-66
2022/07/15 00:53:22;;;;;;;;;;;14.30;99.90;;;;;;5038901;28;20020;-66
2022/07/15 00:55:50;;;;;;;;;;;14.30;99.90;;;;;;5037009;28;19939;-66
2022/07/15 00:58:17;;;;;;;;;;;14.30;99.90;;;;;;5042202;28;20023;-66
2022/07/15 01:00:44;;;;;;;;;;;14.30;99.90;;;;;;5043685;28;19939;-67
2022/07/15 01:03:12;;;;;;;;;;;14.20;99.90;;;;;;5036984;28;20063;-67
2022/07/15 01:05:39;;;;;;;;;;;14.10;99.90;;;;;;5035807;28;19947;-67
2022/07/15 01:08:06;;;;;;;;;;;14.10;99.90;;;;;;5038512;28;19940;-70
2022/07/15 01:10:35;;;;;;;;;;;14.10;99.90;;;;;;5040075;28;20300;-67
2022/07/15 01:13:02;;;;;;;;;;;14.00;99.90;;;;;;5041957;28;20019;-66
2022/07/15 01:15:31;;;;;;;;;;;14.00;99.90;;;;;;5042843;28;19978;-66
2022/07/15 01:17:59;;;;;;;;;;;13.90;99.90;;;;;;5043653;28;19978;-67
2022/07/15 01:20:27;;;;;;;;;;;13.90;99.90;;;;;;5038481;28;20019;-67
2022/07/15 01:22:55;;;;;;;;;;;13.90;99.90;;;;;;5043664;28;20482;-67
2022/07/15 01:25:22;;;;;;;;;;;13.80;99.90;;;;;;5039812;28;19932;-67
2022/07/15 01:27:49;;;;;;;;;;;13.80;99.90;;;;;;5041750;28;20303;-66
2022/07/15 01:30:15;;;;;;;;;;;13.70;99.90;;;;;;5036542;28;20416;-67
2022/07/15 01:32:43;;;;;;;;;;;13.70;99.90;;;;;;5038305;28;20020;-67
2022/07/15 01:35:10;;;;;;;;;;;13.60;99.90;;;;;;5040652;28;19963;-67
2022/07/15 01:37:36;;;;;;;;;;;13.60;99.90;;;;;;5041885;28;19932;-66
2022/07/15 01:40:05;;;;;;;;;;;13.60;99.90;;;;;;5040669;28;20418;-66
2022/07/15 01:42:32;;;;;;;;;;;13.50;99.90;;;;;;5043432;28;19976;-66
2022/07/15 01:44:59;;;;;;;;;;;13.50;99.90;;;;;;5040533;28;20016;-67
2022/07/15 01:47:26;;;;;;;;;;;13.50;99.90;;;;;;5040710;28;19965;-66
2022/07/15 01:49:52;;;;;;;;;;;13.50;99.90;;;;;;5041495;28;19925;-67
2022/07/15 01:52:19;;;;;;;;;;;13.50;99.90;;;;;;5043734;28;20291;-66
2022/07/15 01:54:45;;;;;;;;;;;13.40;99.90;;;;;;5044274;28;20342;-66
2022/07/15 01:57:13;;;;;;;;;;;13.50;99.90;;;;;;5044201;28;20064;-66
2022/07/15 01:59:41;;;;;;;;;;;13.50;99.90;;;;;;5041122;28;20019;-65
2022/07/15 02:02:07;;;;;;;;;;;13.50;99.90;;;;;;5044885;28;22347;-67
2022/07/15 02:04:34;;;;;;;;;;;13.50;99.90;;;;;;5043376;28;20384;-67
2022/07/15 02:07:01;;;;;;;;;;;13.50;99.90;;;;;;5044697;28;19972;-67
2022/07/15 02:09:27;;;;;;;;;;;13.50;99.90;;;;;;5041781;28;20028;-67
2022/07/15 02:11:54;;;;;;;;;;;13.40;99.90;;;;;;5040787;28;19932;-67
2022/07/15 02:14:22;;;;;;;;;;;13.30;99.90;;;;;;5040969;28;19929;-67
2022/07/15 02:16:49;;;;;;;;;;;13.30;99.90;;;;;;5042523;28;19952;-66
2022/07/15 02:19:16;;;;;;;;;;;13.20;99.90;;;;;;5043519;28;19925;-67
2022/07/15 02:21:43;;;;;;;;;;;13.20;99.90;;;;;;5046484;28;20038;-68
2022/07/15 02:24:09;;;;;;;;;;;13.30;99.90;;;;;;5042915;28;19967;-68
2022/07/15 02:26:36;;;;;;;;;;;13.30;99.90;;;;;;5042151;28;20024;-67
2022/07/15 02:29:03;;;;;;;;;;;13.30;99.90;;;;;;5048034;28;20413;-67
2022/07/15 02:31:31;;;;;;;;;;;13.30;99.90;;;;;;5046260;28;19952;-68
2022/07/15 02:33:57;;;;;;;;;;;13.30;99.90;;;;;;5047056;28;20078;-67
2022/07/15 02:36:24;;;;;;;;;;;13.30;99.90;;;;;;5045925;28;20008;-68
2022/07/15 02:38:51;;;;;;;;;;;13.20;99.90;;;;;;5040858;28;20784;-68
2022/07/15 02:41:18;;;;;;;;;;;13.20;99.90;;;;;;5043021;28;19940;-66
2022/07/15 02:43:44;;;;;;;;;;;13.20;99.90;;;;;;5042593;28;20015;-69
2022/07/15 02:46:11;;;;;;;;;;;13.20;99.90;;;;;;5041667;28;20036;-69
2022/07/15 02:48:39;;;;;;;;;;;13.20;99.90;;;;;;5040859;28;19929;-67
2022/07/15 02:51:06;;;;;;;;;;;13.10;99.90;;;;;;5041470;28;20030;-67
2022/07/15 02:53:33;;;;;;;;;;;13.20;99.90;;;;;;5043375;28;20015;-67
2022/07/15 02:56:00;;;;;;;;;;;13.00;99.90;;;;;;5041551;28;20071;-68
2022/07/15 02:58:27;;;;;;;;;;;12.90;99.90;;;;;;5039102;28;20019;-68
2022/07/15 03:00:54;;;;;;;;;;;12.90;99.90;;;;;;5040439;28;19964;-68
2022/07/15 03:03:20;;;;;;;;;;;13.00;99.90;;;;;;5040299;28;19968;-68
2022/07/15 03:05:49;;;;;;;;;;;12.90;99.90;;;;;;5040092;28;20011;-68
2022/07/15 03:08:15;;;;;;;;;;;12.90;99.90;;;;;;5039909;28;19929;-69
2022/07/15 03:10:42;;;;;;;;;;;12.90;99.90;;;;;;5042068;28;20320;-69
2022/07/15 03:13:09;;;;;;;;;;;12.90;99.90;;;;;;5044013;28;19935;-66
2022/07/15 03:15:35;;;;;;;;;;;12.90;99.90;;;;;;5046884;28;20015;-66
2022/07/15 03:18:02;;;;;;;;;;;12.90;99.90;;;;;;5044976;28;19924;-66
2022/07/15 03:20:29;;;;;;;;;;;12.80;99.90;;;;;;5046026;28;19931;-66
2022/07/15 03:22:57;;;;;;;;;;;12.80;99.90;;;;;;5045839;28;19932;-66
2022/07/15 03:25:24;;;;;;;;;;;12.80;99.90;;;;;;5046731;28;20411;-68
2022/07/15 03:27:50;;;;;;;;;;;12.70;99.90;;;;;;5045346;28;19925;-67
2022/07/15 03:30:17;;;;;;;;;;;12.70;99.90;;;;;;5041507;28;20971;-67
2022/07/15 03:32:43;;;;;;;;;;;12.60;99.90;;;;;;5037757;28;19937;-67
2022/07/15 03:35:10;;;;;;;;;;;12.60;99.90;;;;;;5041018;28;20352;-67
2022/07/15 03:37:37;;;;;;;;;;;12.60;99.90;;;;;;5040333;28;20471;-67
2022/07/15 03:40:06;;;;;;;;;;;12.70;99.90;;;;;;5039310;28;19929;-67
2022/07/15 03:42:32;;;;;;;;;;;12.70;99.90;;;;;;5039869;28;20023;-66
2022/07/15 03:44:59;;;;;;;;;;;12.60;99.90;;;;;;5035964;28;19925;-67
2022/07/15 03:47:28;;;;;;;;;;;12.60;99.90;;;;;;5048575;28;20456;-67
2022/07/15 03:49:55;;;;;;;;;;;12.70;99.90;;;;;;5041534;28;20032;-67
2022/07/15 03:52:21;;;;;;;;;;;12.70;99.90;;;;;;5040661;28;20382;-67
2022/07/15 03:54:48;;;;;;;;;;;12.70;99.90;;;;;;5040413;28;19931;-66
2022/07/15 03:57:16;;;;;;;;;;;12.70;99.90;;;;;;5044094;28;19964;-69
2022/07/15 03:59:43;;;;;;;;;;;12.60;99.90;;;;;;5039059;28;20024;-67
2022/07/15 04:02:09;;;;;;;;;;;12.60;99.90;;;;;;5039307;28;19925;-67
2022/07/15 04:04:36;;;;;;;;;;;12.70;99.90;;;;;;5038175;28;19961;-67
2022/07/15 04:07:03;;;;;;;;;;;12.70;99.90;;;;;;5037081;28;20023;-67
2022/07/15 04:09:29;;;;;;;;;;;12.60;99.90;;;;;;5041223;28;19964;-67
2022/07/15 04:11:56;;;;;;;;;;;12.70;99.90;;;;;;5037565;28;19929;-67
2022/07/15 04:14:24;;;;;;;;;;;12.70;99.90;;;;;;5042840;28;20026;-68
2022/07/15 04:16:51;;;;;;;;;;;12.70;99.90;;;;;;5043565;28;20291;-67
2022/07/15 04:19:18;;;;;;;;;;;12.60;99.90;;;;;;5039782;28;19933;-67
2022/07/15 04:21:44;;;;;;;;;;;12.70;99.90;;;;;;5035663;28;19931;-65
2022/07/15 04:24:11;;;;;;;;;;;12.70;99.90;;;;;;5041750;28;20004;-65
2022/07/15 04:26:38;;;;;;;;;;;12.60;99.90;;;;;;5040009;28;19925;-65
2022/07/15 04:29:05;;;;;;;;;;;12.60;99.90;;;;;;5042409;28;19925;-66
2022/07/15 04:31:33;;;;;;;;;;;12.70;99.90;;;;;;5041489;28;20019;-66
2022/07/15 04:33:59;;;;;;;;;;;12.80;99.90;;;;;;5041343;28;19928;-65
2022/07/15 04:36:26;;;;;;;;;;;12.80;99.90;;;;;;5037975;28;21083;-65
2022/07/15 04:38:53;;;;;;;;;;;12.80;99.90;;;;;;5034796;28;19933;-65
2022/07/15 04:41:19;;;;;;;;;;;12.90;99.90;;;;;;5038915;28;20391;-65
2022/07/15 04:43:46;;;;;;;;;;;12.90;99.90;;;;;;5039890;28;19924;-65
2022/07/15 04:46:13;;;;;;;;;;;12.90;99.90;;;;;;5039366;28;20091;-65
2022/07/15 04:51:25;;;;;;;;;;;13.00;99.90;;;;;;5037934;28;19940;-66
2022/07/15 04:53:52;;;;;;;;;;;13.10;99.90;;;;;;5045257;28;20004;-66
2022/07/15 04:56:19;;;;;;;;;;;13.20;99.90;;;;;;5039753;28;20036;-65
2022/07/15 04:58:45;;;;;;;;;;;13.30;99.90;;;;;;5038889;28;20474;-65
2022/07/15 05:01:13;;;;;;;;;;;13.40;99.90;;;;;;5037283;28;19971;-65
2022/07/15 05:03:42;;;;;;;;;;;13.50;99.90;;;;;;5037429;28;19929;-66
2022/07/15 05:06:08;;;;;;;;;;;13.60;99.90;;;;;;5036283;28;20642;-66
2022/07/15 05:08:35;;;;;;;;;;;13.70;99.90;;;;;;5039528;28;20451;-66
2022/07/15 05:11:02;;;;;;;;;;;13.70;99.90;;;;;;5038482;28;20011;-66
2022/07/15 05:13:28;;;;;;;;;;;13.60;99.90;;;;;;5047266;28;20007;-66
2022/07/15 05:15:55;;;;;;;;;;;13.60;99.90;;;;;;5040786;28;19932;-65
2022/07/15 05:18:22;;;;;;;;;;;13.60;99.90;;;;;;5038688;28;19939;-66
2022/07/15 05:20:50;;;;;;;;;;;13.60;99.90;;;;;;5039884;28;19939;-66
2022/07/15 05:23:18;;;;;;;;;;;13.70;99.90;;;;;;5043461;28;20003;-66
2022/07/15 05:25:45;;;;;;;;;;;13.70;99.90;;;;;;5041202;28;19928;-65
2022/07/15 05:28:11;;;;;;;;;;;13.70;99.90;;;;;;5041954;28;20000;-66
2022/07/15 05:30:38;;;;;;;;;;;13.80;99.90;;;;;;5041331;28;19935;-65
2022/07/15 05:33:05;;;;;;;;;;;14.00;99.90;;;;;;5045523;28;19971;-64
2022/07/15 05:35:32;;;;;;;;;;;14.10;99.90;;;;;;5047316;28;19976;-65
2022/07/15 05:38:00;;;;;;;;;;;14.10;99.90;;;;;;5040025;28;19929;-64
2022/07/15 05:40:26;;;;;;;;;;;14.20;99.90;;;;;;5045870;28;20003;-65
2022/07/15 05:42:54;;;;;;;;;;;14.20;99.90;;;;;;5041673;28;19960;-65
2022/07/15 05:45:21;;;;;;;;;;;14.40;99.90;;;;;;5036464;28;19932;-65
2022/07/15 05:47:48;;;;;;;;;;;14.50;99.90;;;;;;5043784;28;20372;-64
2022/07/15 05:50:15;;;;;;;;;;;14.60;99.90;;;;;;5039432;28;19932;-64
2022/07/15 05:52:41;;;;;;;;;;;14.70;99.90;;;;;;5041621;28;19924;-65
2022/07/15 05:55:10;;;;;;;;;;;14.90;99.90;;;;;;5045947;28;19935;-64
2022/07/15 05:57:36;;;;;;;;;;;15.00;99.90;;;;;;5050270;28;20296;-64
2022/07/15 06:00:03;;;;;;;;;;;15.20;99.90;;;;;;5042471;28;19972;-66
2022/07/15 06:02:31;;;;;;;;;;;15.30;99.90;;;;;;5051346;28;20407;-65
2022/07/15 06:04:58;;;;;;;;;;;15.80;99.90;;;;;;5045892;28;19936;-66
2022/07/15 06:07:24;;;;;;;;;;;17.60;99.90;;;;;;5047642;28;19925;-66
2022/07/15 06:09:51;;;;;;;;;;;19.90;99.90;;;;;;5048430;28;20024;-66
2022/07/15 06:12:19;;;;;;;;;;;21.50;95.80;;;;;;5051781;28;19929;-67
2022/07/15 06:14:46;;;;;;;;;;;22.00;93.70;;;;;;5050134;28;19925;-67
2022/07/15 06:17:12;;;;;;;;;;;22.00;89.20;;;;;;5052681;28;20291;-64
2022/07/15 06:19:39;;;;;;;;;;;23.10;87.30;;;;;;5048941;28;20507;-66
2022/07/15 06:22:06;;;;;;;;;;;23.70;78.50;;;;;;5050213;28;20016;-65
2022/07/15 06:24:33;;;;;;;;;;;23.90;69.30;;;;;;5042921;28;19924;-64
2022/07/15 06:27:00;;;;;;;;;;;24.40;65.00;;;;;;5048354;28;20154;-65
2022/07/15 06:29:28;;;;;;;;;;;24.00;69.50;;;;;;5033702;28;20016;-65
2022/07/15 06:31:55;;;;;;;;;;;25.20;56.70;;;;;;5042203;28;20911;-64
2022/07/15 06:34:22;;;;;;;;;;;23.60;58.30;;;;;;5045281;28;20410;-64
2022/07/15 06:36:48;;;;;;;;;;;24.70;59.60;;;;;;5048101;28;19964;-65
2022/07/15 06:39:15;;;;;;;;;;;25.20;51.80;;;;;;5046254;28;20023;-64
2022/07/15 06:41:43;;;;;;;;;;;23.30;56.20;;;;;;5043260;28;19935;-64
2022/07/15 06:44:09;;;;;;;;;;;21.00;75.20;;;;;;5045200;28;20016;-65
2022/07/15 06:46:37;;;;;;;;;;;19.70;88.60;;;;;;5041497;28;19944;-64
2022/07/15 06:49:04;;;;;;;;;;;19.40;93.80;;;;;;5039562;28;19964;-65
2022/07/15 06:51:31;;;;;;;;;;;21.20;92.40;;;;;;5036324;28;19925;-64
2022/07/15 06:53:58;;;;;;;;;;;23.80;77.80;;;;;;5038014;28;20039;-64
2022/07/15 06:56:25;;;;;;;;;;;23.50;64.60;;;;;;5033523;28;20455;-65
2022/07/15 06:58:51;;;;;;;;;;;23.00;60.10;;;;;;5039884;28;19925;-65
2022/07/15 07:01:18;;;;;;;;;;;23.50;57.10;;;;;;5048749;28;20420;-64
2022/07/15 07:03:47;;;;;;;;;;;23.60;58.50;;;;;;5042931;28;20462;-65
2022/07/15 07:06:14;;;;;;;;;;;23.10;56.50;;;;;;5043974;28;19925;-65
2022/07/15 07:08:40;;;;;;;;;;;24.70;53.60;;;;;;5045341;28;20424;-66
2022/07/15 07:11:07;;;;;;;;;;;26.70;43.80;;;;;;5045742;28;20004;-66
2022/07/15 07:13:34;;;;;;;;;;;26.40;39.10;;;;;;5046829;28;19964;-65
2022/07/15 07:16:01;;;;;;;;;;;24.20;45.10;;;;;;5047337;28;19925;-67
2022/07/15 07:18:29;;;;;;;;;;;22.90;45.30;;;;;;5049104;28;20392;-65
2022/07/15 07:20:57;;;;;;;;;;;23.80;47.70;;;;;;5048236;28;20002;-66
2022/07/15 07:23:26;;;;;;;;;;;24.90;47.80;;;;;;5043968;28;19925;-66
2022/07/15 07:25:53;;;;;;;;;;;25.70;40.50;;;;;;5043272;28;19972;-66
2022/07/15 07:28:19;;;;;;;;;;;24.90;40.40;;;;;;5045340;28;19925;-65
2022/07/15 07:30:49;;;;;;;;;;;23.00;43.70;;;;;;5047663;28;19925;-65
2022/07/15 07:33:15;;;;;;;;;;;21.40;49.50;;;;;;5042016;28;20351;-66
2022/07/15 07:35:43;;;;;;;;;;;20.80;55.10;;;;;;5046996;28;19994;-66
2022/07/15 07:38:11;;;;;;;;;;;20.40;57.50;;;;;;5049541;28;20288;-66
2022/07/15 07:40:38;;;;;;;;;;;20.20;59.70;;;;;;5046675;28;20019;-66
2022/07/15 07:43:05;;;;;;;;;;;22.60;57.60;;;;;;5049659;28;19925;-67
2022/07/15 07:45:32;;;;;;;;;;;25.50;44.00;;;;;;5046334;28;19931;-65
2022/07/15 07:47:59;;;;;;;;;;;25.50;37.50;;;;;;5048662;28;19964;-66
2022/07/15 07:50:27;;;;;;;;;;;23.30;43.60;;;;;;5048527;28;19925;-66
2022/07/15 07:52:54;;;;;;;;;;;22.30;45.40;;;;;;5049036;28;19929;-66
2022/07/15 07:55:22;;;;;;;;;;;23.80;44.80;;;;;;5050291;28;19928;-67
2022/07/15 07:57:49;;;;;;;;;;;24.50;39.40;;;;;;5048013;28;20662;-65
2022/07/15 08:00:16;;;;;;;;;;;25.70;36.20;;;;;;5047409;28;20027;-66
2022/07/15 08:02:43;;;;;;;;;;;23.50;40.60;;;;;;5044109;28;20019;-65
2022/07/15 08:05:10;;;;;;;;;;;23.90;40.80;;;;;;5046884;28;19933;-66
2022/07/15 08:07:37;;;;;;;;;;;24.50;37.90;;;;;;5044370;28;20015;-66
2022/07/15 08:10:04;;;;;;;;;;;22.20;43.00;;;;;;5042797;28;20016;-66
2022/07/15 08:12:32;;;;;;;;;;;21.50;44.30;;;;;;5045141;28;20012;-65
2022/07/15 08:14:59;;;;;;;;;;;21.00;47.90;;;;;;5044981;28;19933;-64
2022/07/15 08:17:26;;;;;;;;;;;21.80;46.20;;;;;;5043716;28;19959;-65
2022/07/15 08:19:53;;;;;;;;;;;24.50;40.90;;;;;;5041532;28;20436;-66
2022/07/15 08:22:20;;;;;;;;;;;26.90;33.80;;;;;;5043526;28;19968;-65
2022/07/15 08:24:49;;;;;;;;;;;28.60;27.30;;;;;;5045247;28;19925;-65
2022/07/15 08:27:16;;;;;;;;;;;28.20;25.00;;;;;;5047371;28;20466;-66
2022/07/15 08:29:44;;;;;;;;;;;29.80;21.30;;;;;;5046746;28;20037;-66
2022/07/15 08:32:11;;;;;;;;;;;28.90;20.90;;;;;;5048076;28;19925;-64
2022/07/15 08:34:40;;;;;;;;;;;28.40;21.10;;;;;;5041383;28;20015;-65
2022/07/15 08:37:07;;;;;;;;;;;25.30;24.50;;;;;;5049434;28;19972;-66
2022/07/15 08:39:33;;;;;;;;;;;27.20;24.90;;;;;;5036323;28;19925;-65
2022/07/15 08:42:00;;;;;;;;;;;28.30;21.40;;;;;;5043968;28;19964;-66
2022/07/15 08:44:27;;;;;;;;;;;28.70;20.50;;;;;;5040965;28;19925;-65
2022/07/15 08:46:55;;;;;;;;;;;26.00;22.00;;;;;;5047022;28;20579;-66
2022/07/15 08:49:23;;;;;;;;;;;26.30;24.10;;;;;;5043433;28;20015;-65
2022/07/15 08:51:50;;;;;;;;;;;28.40;21.70;;;;;;5042524;28;20112;-66
2022/07/15 08:54:16;;;;;;;;;;;29.10;19.20;;;;;;5047404;28;20000;-66
2022/07/15 08:56:45;;;;;;;;;;;28.70;18.80;;;;;;5041775;28;19947;-65
2022/07/15 08:59:12;;;;;;;;;;;28.30;18.40;;;;;;5040264;28;19972;-65
2022/07/15 09:01:42;;;;;;;;;;;28.10;18.30;;;;;;5043320;28;19944;-65
2022/07/15 09:04:10;;;;;;;;;;;26.70;19.70;;;;;;5043081;28;20271;-66
2022/07/15 09:06:37;;;;;;;;;;;25.60;22.40;;;;;;5048387;28;20451;-66
2022/07/15 09:09:19;;;;;;;;;;;26.60;22.40;;;;;;5039811;28;19928;-66
2022/07/15 09:11:53;;;;;;;;;;;27.50;19.30;;;;;;5045906;28;20015;-65
2022/07/15 09:14:20;;;;;;;;;;;26.30;21.10;;;;;;5045414;28;19971;-66
2022/07/15 09:16:47;;;;;;;;;;;27.90;19.10;;;;;;5048605;28;19925;-66
2022/07/15 09:19:16;;;;;;;;;;;28.50;16.80;;;;;;5044990;28;19925;-65
2022/07/15 09:21:44;;;;;;;;;;;28.80;14.80;;;;;;5039265;28;19924;-66
2022/07/15 09:24:18;;;;;;;;;;;28.70;14.10;;;;;;5047451;28;19929;-66
2022/07/15 09:26:45;;;;;;;;;;;28.90;13.50;;;;;;5051060;28;19929;-64
2022/07/15 09:34:59;;;;;;;;;;;24.70;19.00;;;;;;5047177;28;19939;-66
2022/07/15 09:37:25;;;;;;;;;;;26.10;17.20;;;;;;5051272;28;20003;-65
2022/07/15 09:39:56;;;;;;;;;;;25.40;18.10;;;;;;5046251;28;20285;-66
2022/07/15 09:42:23;;;;;;;;;;;25.80;19.20;;;;;;5045984;28;19972;-66
2022/07/15 09:44:50;;;;;;;;;;;26.00;19.10;;;;;;5045527;28;19929;-66
2022/07/15 09:47:18;;;;;;;;;;;27.20;17.80;;;;;;5046839;28;20025;-66
2022/07/15 09:49:47;;;;;;;;;;;27.80;17.00;;;;;;5046863;28;19931;-65
2022/07/15 09:52:14;;;;;;;;;;;26.90;17.10;;;;;;5049091;28;19925;-66
2022/07/15 09:54:42;;;;;;;;;;;26.00;18.60;;;;;;5047372;28;20023;-65
2022/07/15 09:57:11;;;;;;;;;;;26.50;18.30;;;;;;5041924;28;19956;-65
2022/07/15 09:59:38;;;;;;;;;;;26.00;18.60;;;;;;5045563;28;20411;-66
2022/07/15 10:02:04;;;;;;;;;;;24.70;19.70;;;;;;5046207;28;19925;-66
2022/07/15 10:04:31;;;;;;;;;;;25.00;20.30;;;;;;5039063;28;19998;-66
2022/07/15 10:07:00;;;;;;;;;;;26.00;18.80;;;;;;5045198;28;19924;-66
2022/07/15 10:09:28;;;;;;;;;;;27.10;16.70;;;;;;5040154;28;20342;-66
2022/07/15 10:11:57;;;;;;;;;;;26.00;16.20;;;;;;5042570;28;20071;-66
2022/07/15 10:14:43;;;;;;;;;;;26.90;15.90;;;;;;5045105;28;19931;-66
2022/07/15 10:17:30;;;;;;;;;;;27.40;14.80;;;;;;5040493;28;19932;-66
2022/07/15 10:20:04;;;;;;;;;;;26.80;15.00;;;;;;5042676;28;20024;-66
2022/07/15 10:22:39;;;;;;;;;;;26.30;15.50;;;;;;5039875;28;19932;-65
2022/07/15 10:25:16;;;;;;;;;;;25.70;16.70;;;;;;5045845;28;19928;-65
2022/07/15 10:27:49;;;;;;;;;;;25.20;17.40;;;;;;5043780;28;20039;-68
2022/07/15 10:30:19;;;;;;;;;;;24.90;18.00;;;;;;5042493;28;20483;-68
2022/07/15 10:33:04;;;;;;;;;;;24.90;18.50;;;;;;5047496;28;19925;-68
2022/07/15 10:35:35;;;;;;;;;;;24.80;18.70;;;;;;5042667;28;19929;-68
2022/07/15 10:38:25;;;;;;;;;;;24.80;19.40;;;;;;5047199;28;19925;-67
2022/07/15 10:41:01;;;;;;;;;;;24.80;20.00;;;;;;5023205;28;19928;-68
2022/07/15 10:43:44;;;;;;;;;;;24.50;20.40;;;;;;5044240;28;19925;-68
2022/07/15 10:46:28;;;;;;;;;;;24.10;20.50;;;;;;5045686;28;20619;-68
2022/07/15 10:49:13;;;;;;;;;;;23.50;20.70;;;;;;5045195;28;20364;-68
2022/07/15 10:51:44;;;;;;;;;;;23.30;21.60;;;;;;5040274;28;20463;-69
2022/07/15 10:54:12;;;;;;;;;;;23.60;21.10;;;;;;5044846;28;19937;-69
2022/07/15 10:56:42;;;;;;;;;;;22.90;20.50;;;;;;5044290;28;19979;-68
2022/07/15 10:59:10;;;;;;;;;;;23.20;20.10;;;;;;5039936;28;20336;-68
2022/07/15 11:01:37;;;;;;;;;;;23.80;20.10;;;;;;5046857;28;19925;-68
2022/07/15 11:04:11;;;;;;;;;;;23.90;20.30;;;;;;5040445;28;20019;-67
2022/07/15 11:06:52;;;;;;;;;;;23.40;20.90;;;;;;5038307;28;19935;-65
2022/07/15 11:09:34;;;;;;;;;;;23.30;20.80;;;;;;5040038;28;20062;-68
2022/07/15 11:12:02;;;;;;;;;;;23.20;20.50;;;;;;5041321;28;20190;-68
2022/07/15 11:14:46;;;;;;;;;;;23.50;20.80;;;;;;5043343;28;20291;-68
2022/07/15 11:17:13;;;;;;;;;;;23.60;21.20;;;;;;5039760;28;20031;-68
2022/07/15 11:19:40;;;;;;;;;;;24.10;20.60;;;;;;5040306;28;20011;-67
2022/07/15 11:22:09;;;;;;;;;;;24.50;19.00;;;;;;5041385;28;20011;-67
2022/07/15 11:24:36;;;;;;;;;;;24.80;18.00;;;;;;5036234;28;19975;-68
2022/07/15 11:27:04;;;;;;;;;;;24.70;17.80;;;;;;5042442;28;20016;-67
2022/07/15 11:29:52;;;;;;;;;;;24.80;17.20;;;;;;5041897;28;19933;-67
2022/07/15 11:32:19;;;;;;;;;;;24.90;17.90;;;;;;5037590;28;20019;-67
2022/07/15 11:34:47;;;;;;;;;;;24.50;18.80;;;;;;5040468;28;19959;-67
2022/07/15 11:37:18;;;;;;;;;;;24.80;18.20;;;;;;5035456;28;19925;-67
2022/07/15 11:39:46;;;;;;;;;;;25.00;17.40;;;;;;5040058;28;19925;-68
2022/07/15 11:45:04;;;;;;;;;;;24.80;18.00;;;;;;5040068;28;19931;-68
2022/07/15 11:47:31;;;;;;;;;;;23.70;19.30;;;;;;5044532;28;19933;-69
2022/07/15 11:50:01;;;;;;;;;;;23.90;20.40;;;;;;5047073;28;19991;-68
2022/07/15 11:52:28;;;;;;;;;;;24.50;18.40;;;;;;5045520;28;20320;-68
2022/07/15 11:54:56;;;;;;;;;;;24.70;18.20;;;;;;5044998;28;20003;-68
2022/07/15 11:57:24;;;;;;;;;;;24.80;18.00;;;;;;5044375;28;19939;-69
2022/07/15 11:59:52;;;;;;;;;;;24.30;18.40;;;;;;5041606;28;19936;-67
2022/07/15 12:02:19;;;;;;;;;;;23.30;19.60;;;;;;5044856;28;19932;-67
2022/07/15 12:04:46;;;;;;;;;;;22.90;19.90;;;;;;5046583;28;19925;-67
2022/07/15 12:07:12;;;;;;;;;;;22.70;20.20;;;;;;5045725;28;21030;-67
2022/07/15 12:09:40;;;;;;;;;;;22.70;21.10;;;;;;5046075;28;19960;-68
2022/07/15 12:12:07;;;;;;;;;;;23.40;20.80;;;;;;5044234;28;20015;-68
2022/07/15 12:14:36;;;;;;;;;;;24.10;19.20;;;;;;5044156;28;19925;-68
2022/07/15 12:17:02;;;;;;;;;;;24.50;18.20;;;;;;5040227;28;20019;-68
2022/07/15 12:19:30;;;;;;;;;;;24.40;18.40;;;;;;5043048;28;19924;-68
2022/07/15 12:21:58;;;;;;;;;;;24.60;18.00;;;;;;5043534;28;19970;-68
2022/07/15 12:24:26;;;;;;;;;;;24.60;17.90;;;;;;5040410;28;19932;-66
2022/07/15 12:26:57;;;;;;;;;;;24.50;17.60;;;;;;5042551;28;19941;-68
2022/07/15 12:29:25;;;;;;;;;;;24.60;17.80;;;;;;5042084;28;20015;-68
2022/07/15 12:31:54;;;;;;;;;;;25.00;17.80;;;;;;5035889;28;20023;-68
2022/07/15 12:34:20;;;;;;;;;;;25.10;17.50;;;;;;5039297;28;19925;-68
2022/07/15 12:36:55;;;;;;;;;;;25.10;18.00;;;;;;5039489;28;19986;-69
2022/07/15 12:39:22;;;;;;;;;;;25.00;17.50;;;;;;5040206;28;19960;-68
2022/07/15 12:42:00;;;;;;;;;;;24.90;17.40;;;;;;5039057;28;20351;-68
2022/07/15 12:44:27;;;;;;;;;;;24.80;18.40;;;;;;5035082;28;19933;-68
2022/07/15 12:46:57;;;;;;;;;;;25.20;18.00;;;;;;5042508;28;19925;-68
2022/07/15 12:49:47;;;;;;;;;;;25.40;17.10;;;;;;5043172;28;19932;-68
2022/07/15 12:52:18;;;;;;;;;;;25.20;17.10;;;;;;5038561;28;20308;-67
2022/07/15 12:54:44;;;;;;;;;;;25.00;17.00;;;;;;5039571;28;20427;-69
2022/07/15 12:57:21;;;;;;;;;;;23.80;18.00;;;;;;5036322;28;20195;-68
2022/07/15 12:59:51;;;;;;;;;;;23.10;19.70;;;;;;5036443;28;19929;-67
2022/07/15 13:02:19;;;;;;;;;;;23.70;19.30;;;;;;5047639;28;20036;-67
2022/07/15 13:04:46;;;;;;;;;;;24.40;17.60;;;;;;5042654;28;19929;-70
2022/07/15 13:07:12;;;;;;;;;;;24.60;16.30;;;;;;5037842;28;20518;-68
2022/07/15 13:09:39;;;;;;;;;;;24.30;17.60;;;;;;5041960;28;19979;-68
2022/07/15 13:12:06;;;;;;;;;;;24.80;17.60;;;;;;5040818;28;20435;-68
2022/07/15 13:14:33;;;;;;;;;;;25.30;17.10;;;;;;5043613;28;19931;-68
2022/07/15 13:16:59;;;;;;;;;;;25.30;17.00;;;;;;5039802;28;20407;-68
2022/07/15 13:19:28;;;;;;;;;;;25.10;17.70;;;;;;5040999;28;19971;-68
2022/07/15 13:21:54;;;;;;;;;;;24.70;16.70;;;;;;5042603;28;20468;-68
2022/07/15 13:24:21;;;;;;;;;;;24.90;16.60;;;;;;5044123;28;19925;-68
2022/07/15 13:26:48;;;;;;;;;;;25.30;15.90;;;;;;5043233;28;20269;-68
2022/07/15 13:29:14;;;;;;;;;;;25.30;15.70;;;;;;5042040;28;19931;-68
2022/07/15 13:31:41;;;;;;;;;;;25.20;15.60;;;;;;5047696;28;19983;-68
2022/07/15 13:34:08;;;;;;;;;;;24.80;16.00;;;;;;5046719;28;19964;-69
2022/07/15 13:36:37;;;;;;;;;;;25.00;16.10;;;;;;5044215;28;19971;-69
2022/07/15 13:39:04;;;;;;;;;;;25.10;16.10;;;;;;5043894;28;19939;-69
2022/07/15 13:41:31;;;;;;;;;;;25.20;16.30;;;;;;5034995;28;20018;-69
2022/07/15 13:43:58;;;;;;;;;;;25.10;15.60;;;;;;5046039;28;19990;-69
2022/07/15 13:46:24;;;;;;;;;;;25.10;15.90;;;;;;5045586;28;20382;-69
2022/07/15 13:48:51;;;;;;;;;;;25.30;16.40;;;;;;5049720;28;20372;-69
2022/07/15 13:51:22;;;;;;;;;;;25.70;16.30;;;;;;5051294;28;20020;-68
2022/07/15 13:53:51;;;;;;;;;;;25.30;15.80;;;;;;5048066;28;19925;-67
2022/07/15 13:56:18;;;;;;;;;;;25.10;17.10;;;;;;5045313;28;20374;-67
2022/07/15 13:58:44;;;;;;;;;;;24.90;17.90;;;;;;5046000;28;20011;-69
2022/07/15 14:01:11;;;;;;;;;;;24.90;17.10;;;;;;5043784;28;19956;-69
2022/07/15 14:03:38;;;;;;;;;;;25.20;17.20;;;;;;5043656;28;20015;-69
2022/07/15 14:06:05;;;;;;;;;;;25.70;17.00;;;;;;5046575;28;20008;-69
2022/07/15 14:08:32;;;;;;;;;;;25.60;16.10;;;;;;5047723;28;19940;-69
2022/07/15 14:11:00;;;;;;;;;;;25.30;16.60;;;;;;5039078;28;19933;-69
2022/07/15 14:13:27;;;;;;;;;;;25.20;16.60;;;;;;5039721;28;19925;-67
2022/07/15 14:15:53;;;;;;;;;;;25.70;16.90;;;;;;5042799;28;20338;-67
2022/07/15 14:18:42;;;;;;;;;;;25.20;17.40;;;;;;5048178;28;19935;-67
2022/07/15 14:21:07;;;;;;;;;;;25.40;17.60;;;;;;5044164;28;19936;-68
2022/07/15 14:23:34;;;;;;;;;;;25.60;17.50;;;;;;5044481;28;19929;-68
2022/07/15 14:26:02;;;;;;;;;;;25.60;16.90;;;;;;5040120;28;20016;-67
2022/07/15 14:28:29;;;;;;;;;;;24.70;17.90;;;;;;5043903;28;19935;-67
2022/07/15 14:30:56;;;;;;;;;;;24.90;18.50;;;;;;5040444;28;19925;-66
2022/07/15 14:33:22;;;;;;;;;;;25.20;17.80;;;;;;5042112;28;20311;-67